• Join FlightAware (Why Join?)
  • Login
  • US Flag 
06:39AM EDT


 

Airport Tracker/Info


-or-


 

Live Flight TrackerFlight Track Log ✈ EJA951 ✈ 01-Nov-2013 ✈ KCOT - KDAL

Flight Track Log - Related Links

Times and Time Zones

All times are in EDT time to prevent confusion due to time zone crossing. See the EJA951 flight status page for this flight to view local times or setup timezone preferences in your user account.

Time Position Orientation Groundspeed Altitude Reporting Facility
EDT Latitude Longitude Course Direction KTS MPH feet Rate Location/Type
01:16PM 28.4258 -99.2244 30° Northeast 299 344 8,300  Level Houston Center
01:17PM 28.4964 -99.1786 30° Northeast 312 359 10,100 1,800 Climbing Houston Center
01:18PM 28.6000 -99.1267 24° Northeast 341 392 12,100 1,920 Climbing Houston Center
01:19PM 28.6989 -99.0803 22° Northeast 380 437 14,200 1,740 Climbing Houston Center
01:20PM 28.8000 -99.0336 22° Northeast 388 447 15,800 1,680 Climbing Houston Center
01:21PM 28.9172 -98.9750 24° Northeast 412 474 17,700 1,500 Climbing Houston Center
01:22PM 29.0200 -98.9276 30° Northeast  Level Estimated
01:22PM 29.0200 -98.9056 31° Northeast 428 493 19,000  Level Houston Center
01:24PM 29.1328 -98.8258 32° Northeast 441 507 19,200 780 Climbing Houston Center
01:25PM 29.2389 -98.7503 32° Northeast 448 516 20,700 1,500 Climbing Houston Center
01:26PM 29.3564 -98.6669 32° Northeast 459 528 22,300 1,440 Climbing Houston Center
01:27PM 29.4672 -98.5875 32° Northeast 467 537 23,800 1,200 Climbing Houston Center
01:28PM 29.5775 -98.5314 24° Northeast 477 549 24,900 1,500 Climbing Houston Center
01:29PM 29.7319 -98.5058 North 469 540 26,900 1,620 Climbing Houston Center
01:30PM 29.8600 -98.4831 North 466 536 28,300 960 Climbing Houston Center
01:31PM 30.0006 -98.4586 North 501 577 29,000 300 Climbing Houston Center
01:32PM 30.1361 -98.4339 North 496 571 29,000  Level Houston Center
01:33PM 30.2772 -98.4072 North 495 570 29,000  Level Houston Center
01:34PM 30.4239 -98.3828 North 499 574 29,000  Level Houston Center
01:35PM 30.5603 -98.3581 North 493 567 29,000  Level Houston Center
01:36PM 30.6967 -98.3328 North 490 564 29,000  Level Houston Center
01:37PM 30.8328 -98.3094 North 487 560 29,000  Level Houston Center
01:38PM 30.9669 -98.2842 North 483 556 29,000  Level Houston Center
01:39PM 31.0992 -98.2614 North 477 549 29,000 -120 Level Houston Center
01:40PM 31.1897 -98.2439 North 479 551 28,900 -720 Descending Fort Worth Center
01:41PM 31.3214 -98.1964 17° North 479 551 27,900 -1,080 Descending Fort Worth Center
01:42PM 31.4492 -98.1342 23° Northeast 491 565 26,800 -1,080 Descending Fort Worth Center
01:43PM 31.5792 -98.0522 28° Northeast 499 574 25,800 -1,200 Descending Fort Worth Center
01:44PM 31.6942 -97.9847 27° Northeast 505 581 24,500 -1,800 Descending Fort Worth Center
01:45PM 31.8239 -97.9072 27° Northeast 517 595 22,200 -2,280 Descending Fort Worth Center
01:46PM 31.9453 -97.8294 29° Northeast 502 578 20,000 -2,220 Descending Fort Worth Center
01:47PM 32.0731 -97.7517 27° Northeast 475 547 17,800 -2,040 Descending Fort Worth Center
01:48PM 32.1775 -97.6883 27° Northeast 462 532 16,000 -2,040 Descending Fort Worth Center
01:49PM 32.2967 -97.6125 28° Northeast 452 520 13,800 -1,860 Descending Fort Worth Center
01:50PM 32.3844 -97.5586 27° Northeast 417 480 12,300 -1,440 Descending Fort Worth Center
01:51PM 32.4742 -97.4997 29° Northeast 347 399 11,000 -660 Descending Fort Worth Center
01:52PM 32.5389 -97.4233 45° Northeast 319 367 11,000  Level Fort Worth Center
01:53PM 32.6017 -97.3492 45° Northeast 313 360 11,000  Level Fort Worth Center
01:54PM 32.6683 -97.2703 45° Northeast 323 372 11,000  Level Fort Worth Center
01:55PM 32.7350 -97.1911 45° Northeast 323 372 11,000 -60 Level Fort Worth Center
01:56PM 32.7956 -97.1736 14° North 297 342 10,900 -840 Descending Fort Worth Center
01:57PM 32.8750 -97.1711 North 251 289 9,400 -1,440 Descending Fort Worth Center
01:58PM 32.9144 -97.0992 57° Northeast 227 261 8,100 -1,560 Descending Fort Worth Center
01:58PM 32.9333 -97.0500 65° Northeast 256 295 7,000 -2,400 Descending Dallas / Fort Worth TRACON
01:59PM 32.9333 -96.9667 90° East 225 259 4,400 -2,700 Descending Dallas / Fort Worth TRACON
02:00PM 32.9000 -96.9167 128° Southeast 184 212 1,900 -1,740 Descending Dallas / Fort Worth TRACON
02:01PM 32.8833 -96.8833 121° Southeast 133 153 1,200 -720 Descending Dallas / Fort Worth TRACON
02:03PM 32.8471 -96.8518 109° East  Level Estimated
02:10PM 32.8471 -96.8518 109° East  Level Estimated
02:11PM 32.8471 -96.8518 109° East  Level Estimated